createdAt,value
2023-05-16T00:00:48.213Z,59.10
2023-05-16T00:03:25.812Z,58.95
2023-05-16T00:05:53.658Z,61.47
2023-05-16T00:08:21.555Z,63.44
2023-05-16T00:10:49.407Z,61.65
2023-05-16T00:13:22.293Z,59.14
2023-05-16T00:15:51.856Z,58.86
2023-05-16T00:18:19.760Z,61.32
2023-05-16T00:20:49.185Z,63.44
2023-05-16T00:23:17.148Z,61.73
2023-05-16T00:25:45.026Z,58.69
2023-05-16T00:28:12.798Z,58.38
2023-05-16T00:30:41.098Z,60.87
2023-05-16T00:33:09.010Z,63.15
2023-05-16T00:35:36.901Z,61.52
2023-05-16T00:38:04.703Z,58.56
2023-05-16T00:40:32.691Z,59.22
2023-05-16T00:43:00.647Z,61.49
2023-05-16T00:45:28.830Z,63.67
2023-05-16T00:47:56.932Z,61.48
2023-05-16T00:50:24.918Z,58.40
2023-05-16T00:52:53.113Z,58.99
2023-05-16T00:55:21.237Z,61.55
2023-05-16T00:57:49.087Z,63.60
2023-05-16T01:00:19.856Z,61.29
2023-05-16T01:02:48.230Z,58.46
2023-05-16T01:05:16.170Z,59.78
2023-05-16T01:07:44.254Z,62.42
2023-05-16T01:10:12.191Z,63.00
2023-05-16T01:13:02.029Z,60.12
2023-05-16T01:15:40.223Z,58.28
2023-05-16T01:18:31.299Z,60.86
2023-05-16T01:21:09.496Z,63.39
2023-05-16T01:23:47.171Z,60.89
2023-05-16T01:26:23.871Z,58.18
2023-05-16T01:28:52.615Z,60.01
2023-05-16T01:31:22.072Z,62.39
2023-05-16T01:33:50.538Z,63.52
2023-05-16T01:36:43.131Z,60.74
2023-05-16T01:39:30.750Z,58.28
2023-05-16T01:42:06.822Z,61.04
2023-05-16T01:44:46.223Z,63.66
2023-05-16T01:47:15.316Z,61.29
2023-05-16T01:50:14.437Z,58.61
2023-05-16T01:52:48.018Z,59.79
2023-05-16T01:55:27.518Z,62.62
2023-05-16T01:57:55.950Z,63.61
2023-05-16T02:00:25.064Z,60.60
2023-05-16T02:02:52.914Z,58.03
2023-05-16T02:05:20.872Z,59.88
2023-05-16T02:07:49.161Z,62.46
2023-05-16T02:10:16.960Z,63.16
2023-05-16T02:12:44.774Z,60.36
2023-05-16T02:15:14.258Z,58.17
2023-05-16T02:17:42.158Z,60.10
2023-05-16T02:20:11.364Z,62.61
2023-05-16T02:22:39.715Z,63.35
2023-05-16T02:25:08.807Z,60.69
2023-05-16T02:27:36.799Z,58.38
2023-05-16T02:30:05.725Z,59.87
2023-05-16T02:32:34.011Z,62.70
2023-05-16T02:35:01.866Z,62.90
2023-05-16T02:37:29.561Z,60.01
2023-05-16T02:39:57.397Z,57.70
2023-05-16T02:42:27.583Z,59.58
2023-05-16T02:44:55.746Z,62.09
2023-05-16T02:47:23.845Z,63.91
2023-05-16T02:49:54.368Z,61.62
2023-05-16T02:52:22.229Z,58.52
2023-05-16T02:55:09.339Z,58.72
2023-05-16T02:57:37.779Z,61.45
2023-05-16T03:00:06.747Z,63.67
2023-05-16T03:02:34.855Z,61.54
2023-05-16T03:05:02.931Z,58.49
2023-05-16T03:07:30.727Z,59.64
2023-05-16T03:09:58.513Z,62.12
2023-05-16T03:12:26.297Z,63.80
2023-05-16T03:14:54.592Z,61.32
2023-05-16T03:17:22.725Z,58.36
2023-05-16T03:19:51.440Z,59.52
2023-05-16T03:22:19.184Z,61.92
2023-05-16T03:24:47.274Z,63.93
2023-05-16T03:27:15.199Z,61.49
2023-05-16T03:29:42.949Z,58.52
2023-05-16T03:32:11.806Z,59.54
2023-05-16T03:34:39.664Z,62.12
2023-05-16T03:37:07.415Z,63.57
2023-05-16T03:39:35.280Z,61.02
2023-05-16T03:42:03.521Z,58.36
2023-05-16T03:44:31.596Z,59.89
2023-05-16T03:46:59.478Z,62.28
2023-05-16T03:49:30.148Z,64.15
2023-05-16T03:51:58.030Z,61.87
2023-05-16T03:54:25.801Z,59.28
2023-05-16T03:56:53.658Z,58.92
2023-05-16T03:59:21.557Z,61.47
2023-05-16T04:01:50.546Z,63.98
2023-05-16T04:04:18.381Z,62.14
2023-05-16T04:06:46.134Z,59.39
2023-05-16T04:09:13.911Z,57.83
2023-05-16T04:11:41.735Z,60.26
2023-05-16T04:14:09.645Z,63.00
2023-05-16T04:16:37.516Z,62.75
2023-05-16T04:19:05.520Z,59.96
2023-05-16T04:21:33.614Z,57.88
2023-05-16T04:24:01.713Z,59.81
2023-05-16T04:26:30.311Z,62.50
2023-05-16T04:28:59.595Z,63.12
2023-05-16T04:31:28.290Z,60.53
2023-05-16T04:33:56.130Z,57.90
2023-05-16T04:36:24.136Z,59.72
2023-05-16T04:38:52.522Z,62.25
2023-05-16T04:41:20.394Z,63.92
2023-05-16T04:43:48.332Z,61.20
2023-05-16T04:46:16.355Z,58.27
2023-05-16T04:48:44.153Z,59.64
2023-05-16T04:51:12.249Z,62.33
2023-05-16T04:53:40.004Z,63.14
2023-05-16T04:56:07.968Z,60.31
2023-05-16T04:58:35.718Z,58.04
2023-05-16T05:01:04.097Z,59.67
2023-05-16T05:03:31.966Z,61.91
2023-05-16T05:05:59.749Z,63.51
2023-05-16T05:08:27.500Z,61.37
2023-05-16T05:10:58.437Z,58.65
2023-05-16T05:13:26.415Z,59.23
2023-05-16T05:15:54.435Z,61.35
2023-05-16T05:18:22.337Z,63.23
2023-05-16T05:20:50.629Z,61.12
2023-05-16T05:23:18.444Z,58.03
2023-05-16T05:25:46.239Z,59.04
2023-05-16T05:28:14.231Z,60.80
2023-05-16T05:30:44.836Z,62.45
2023-05-16T05:33:17.757Z,63.41
2023-05-16T05:35:45.652Z,60.85
2023-05-16T05:38:13.397Z,58.10
2023-05-16T05:40:41.496Z,58.77
2023-05-16T05:43:09.317Z,60.18
2023-05-16T05:45:37.667Z,61.60
2023-05-16T05:48:06.062Z,62.94
2023-05-16T05:50:34.214Z,61.04
2023-05-16T05:53:01.992Z,57.57
2023-05-16T05:55:29.934Z,58.80
2023-05-16T05:57:57.787Z,60.90
2023-05-16T06:00:26.056Z,62.67
2023-05-16T06:02:53.993Z,61.91
2023-05-16T06:05:22.135Z,59.04
2023-05-16T06:07:49.972Z,58.16
2023-05-16T06:10:17.841Z,59.52
2023-05-16T06:12:45.730Z,61.37
2023-05-16T06:15:13.684Z,62.94
2023-05-16T06:17:42.153Z,60.32
2023-05-16T06:20:10.626Z,57.27
2023-05-16T06:22:38.509Z,58.15
2023-05-16T06:25:06.978Z,58.45
2023-05-16T06:27:34.909Z,59.40
2023-05-16T06:30:03.016Z,59.95
2023-05-16T06:32:31.165Z,60.09
2023-05-16T06:34:58.981Z,60.09
2023-05-16T06:37:26.780Z,60.39
2023-05-16T06:39:54.746Z,61.07
2023-05-16T06:42:22.732Z,61.70
2023-05-16T06:44:51.262Z,61.67
2023-05-16T06:47:19.178Z,61.58
2023-05-16T06:49:47.022Z,62.03
2023-05-16T06:52:14.928Z,62.60
2023-05-16T06:54:42.706Z,61.63
2023-05-16T06:57:10.618Z,58.01
2023-05-16T06:59:38.556Z,55.76
2023-05-16T07:02:07.078Z,57.06
2023-05-16T07:04:36.645Z,57.90
2023-05-16T07:07:05.078Z,59.14
2023-05-16T07:09:32.959Z,60.05
2023-05-16T07:12:01.088Z,60.64
2023-05-16T07:14:29.030Z,61.26
2023-05-16T07:16:56.885Z,61.58
2023-05-16T07:19:24.749Z,61.87
2023-05-16T07:21:52.707Z,62.31
2023-05-16T07:24:20.536Z,61.78
2023-05-16T07:26:48.354Z,58.73
2023-05-16T07:29:16.362Z,56.04
2023-05-16T07:31:44.773Z,57.26
2023-05-16T07:34:12.625Z,57.82
2023-05-16T07:36:40.405Z,57.77
2023-05-16T07:39:08.283Z,57.75
2023-05-16T07:41:36.218Z,58.07
2023-05-16T07:44:04.166Z,58.42
2023-05-16T07:46:32.132Z,57.68
2023-05-16T07:49:00.067Z,57.85
2023-05-16T07:51:28.903Z,57.87
2023-05-16T07:53:56.726Z,58.22
2023-05-16T07:56:24.675Z,59.12
2023-05-16T07:58:53.438Z,59.25
2023-05-16T08:01:21.435Z,59.35
2023-05-16T08:03:49.392Z,59.34
2023-05-16T08:06:17.389Z,59.46
2023-05-16T08:08:45.205Z,57.68
2023-05-16T08:11:13.036Z,58.06
2023-05-16T08:13:40.920Z,57.17
2023-05-16T08:16:08.927Z,56.65
2023-05-16T08:18:37.011Z,56.82
2023-05-16T08:21:05.301Z,55.90
2023-05-16T08:23:33.205Z,55.65
2023-05-16T08:26:01.747Z,55.51
2023-05-16T08:28:30.258Z,54.90
2023-05-16T08:30:58.593Z,55.58
2023-05-16T08:33:26.663Z,55.75
2023-05-16T08:35:54.555Z,55.99
2023-05-16T08:38:22.533Z,54.76
2023-05-16T08:40:50.500Z,55.02
2023-05-16T08:43:20.860Z,55.43
2023-05-16T08:45:49.528Z,55.01
2023-05-16T08:48:18.725Z,54.04
2023-05-16T08:50:46.651Z,54.03
2023-05-16T08:53:15.733Z,54.79
2023-05-16T08:55:44.444Z,54.78
2023-05-16T08:58:13.125Z,55.48
2023-05-16T09:00:41.581Z,55.25
2023-05-16T09:03:09.936Z,54.74
2023-05-16T09:05:38.634Z,54.85
2023-05-16T09:08:06.630Z,54.55
2023-05-16T09:10:34.659Z,53.99
2023-05-16T09:13:03.617Z,54.44
2023-05-16T09:15:33.708Z,54.00
2023-05-16T09:18:03.160Z,54.42
2023-05-16T09:20:31.454Z,54.63
2023-05-16T09:23:00.643Z,54.69
2023-05-16T09:25:32.001Z,53.69
2023-05-16T09:28:02.862Z,53.73
2023-05-16T09:30:34.286Z,54.00
2023-05-16T09:33:03.244Z,53.94
2023-05-16T09:35:43.956Z,54.30
2023-05-16T09:38:17.284Z,55.07
2023-05-16T09:40:46.162Z,54.52
2023-05-16T09:43:18.303Z,54.19
2023-05-16T09:45:48.995Z,55.17
2023-05-16T09:48:18.386Z,55.19
2023-05-16T09:50:54.585Z,54.82
2023-05-16T09:53:32.569Z,54.53
2023-05-16T09:56:07.885Z,55.31
2023-05-16T09:58:37.980Z,54.99
2023-05-16T10:01:07.378Z,53.70
2023-05-16T10:03:37.302Z,53.95
2023-05-16T10:06:06.896Z,54.66
2023-05-16T10:08:36.793Z,54.93
2023-05-16T10:11:06.820Z,54.87
2023-05-16T10:13:36.455Z,55.28
2023-05-16T10:16:11.398Z,55.88
2023-05-16T10:18:41.391Z,56.05
2023-05-16T10:21:14.819Z,56.61
2023-05-16T10:23:43.969Z,57.40
2023-05-16T10:26:14.745Z,58.62
2023-05-16T10:28:42.984Z,59.30
2023-05-16T10:31:11.793Z,60.26
2023-05-16T10:33:41.139Z,61.51
2023-05-16T10:36:10.400Z,61.32
2023-05-16T10:38:39.612Z,60.11
2023-05-16T10:41:08.721Z,58.61
2023-05-16T10:43:36.887Z,58.55
2023-05-16T10:46:09.974Z,59.41
2023-05-16T10:48:42.406Z,59.12
2023-05-16T10:51:22.472Z,59.25
2023-05-16T10:54:05.455Z,58.83
2023-05-16T10:56:34.780Z,58.31
2023-05-16T10:59:04.757Z,57.78
2023-05-16T11:01:36.402Z,58.26
2023-05-16T11:04:13.709Z,58.45
2023-05-16T11:06:50.054Z,59.05
2023-05-16T11:09:25.577Z,58.96
2023-05-16T11:11:53.723Z,58.82
2023-05-16T11:14:45.292Z,59.07
2023-05-16T11:17:23.416Z,58.93
2023-05-16T11:19:59.519Z,59.43
2023-05-16T11:22:34.323Z,59.75
2023-05-16T11:25:08.070Z,59.72
2023-05-16T11:27:44.453Z,59.26
2023-05-16T11:30:15.497Z,58.51
2023-05-16T11:32:46.019Z,57.82
2023-05-16T11:35:16.052Z,57.61
2023-05-16T11:37:45.641Z,57.22
2023-05-16T11:40:14.752Z,57.53
2023-05-16T11:42:45.973Z,57.58
2023-05-16T11:45:18.628Z,56.55
2023-05-16T11:47:48.594Z,56.51
2023-05-16T11:50:22.433Z,55.79
2023-05-16T11:52:53.841Z,56.86
2023-05-16T11:55:40.441Z,57.47
2023-05-16T11:58:10.693Z,58.61
2023-05-16T12:00:48.366Z,58.91
2023-05-16T12:03:16.527Z,59.72
2023-05-16T12:05:55.780Z,60.19
2023-05-16T12:08:24.781Z,59.95
2023-05-16T12:10:53.725Z,60.47
2023-05-16T12:13:24.014Z,60.98
2023-05-16T12:15:52.961Z,61.30
2023-05-16T12:18:25.849Z,61.44
2023-05-16T12:20:54.024Z,61.10
2023-05-16T12:23:22.123Z,60.48
2023-05-16T12:25:55.491Z,60.79
2023-05-16T12:28:23.448Z,61.12
2023-05-16T12:30:51.318Z,62.28
2023-05-16T12:33:19.682Z,62.23
2023-05-16T12:35:48.080Z,58.14
2023-05-16T12:38:17.815Z,57.41
2023-05-16T12:40:46.974Z,59.24
2023-05-16T12:43:21.412Z,60.35
2023-05-16T12:45:57.739Z,60.40
2023-05-16T12:48:34.589Z,61.36
2023-05-16T12:51:15.303Z,61.83
2023-05-16T12:54:05.654Z,62.09
2023-05-16T12:56:44.256Z,62.85
2023-05-16T12:59:15.090Z,61.12
2023-05-16T13:01:44.518Z,57.23
2023-05-16T13:04:16.723Z,57.92
2023-05-16T13:06:58.673Z,59.93
2023-05-16T13:09:30.413Z,60.78
2023-05-16T13:12:01.185Z,60.71
2023-05-16T13:14:29.230Z,60.57
2023-05-16T13:16:57.183Z,61.09
2023-05-16T13:19:25.435Z,61.77
2023-05-16T13:21:53.484Z,62.18
2023-05-16T13:24:21.342Z,62.94
2023-05-16T13:26:49.331Z,60.35
2023-05-16T13:29:17.272Z,57.32
2023-05-16T13:31:45.233Z,58.07
2023-05-16T13:34:13.153Z,59.34
2023-05-16T13:36:53.134Z,60.65
2023-05-16T13:39:22.730Z,60.92
2023-05-16T13:41:51.573Z,61.74
2023-05-16T13:44:19.830Z,61.97
2023-05-16T13:46:47.789Z,62.32
2023-05-16T13:49:15.765Z,62.72
2023-05-16T13:51:43.657Z,60.73
2023-05-16T13:54:11.639Z,57.18
2023-05-16T13:56:39.634Z,57.72
2023-05-16T13:59:07.967Z,58.47
2023-05-16T14:01:37.067Z,59.01
2023-05-16T14:04:05.524Z,59.75
2023-05-16T14:06:34.094Z,60.40
2023-05-16T14:09:02.220Z,61.05
2023-05-16T14:11:30.168Z,61.78
2023-05-16T14:13:58.287Z,62.09
2023-05-16T14:16:26.610Z,62.78
2023-05-16T14:18:54.569Z,60.12
2023-05-16T14:21:22.666Z,56.63
2023-05-16T14:23:50.551Z,56.90
2023-05-16T14:26:22.767Z,57.95
2023-05-16T14:28:51.557Z,58.89
2023-05-16T14:31:19.493Z,59.46
2023-05-16T14:33:47.502Z,60.49
2023-05-16T14:36:15.364Z,61.21
2023-05-16T14:38:43.236Z,62.53
2023-05-16T14:41:11.018Z,61.44
2023-05-16T14:43:39.366Z,58.89
2023-05-16T14:46:07.664Z,57.26
2023-05-16T14:48:38.418Z,58.78
2023-05-16T14:51:07.019Z,60.15
2023-05-16T14:53:34.934Z,61.03
2023-05-16T14:56:03.843Z,62.04
2023-05-16T14:58:31.714Z,62.61
2023-05-16T15:00:59.631Z,60.57
2023-05-16T15:03:27.594Z,57.18
2023-05-16T15:05:55.850Z,57.70
2023-05-16T15:08:23.804Z,58.93
2023-05-16T15:10:55.098Z,59.78
2023-05-16T15:13:23.458Z,60.82
2023-05-16T15:15:51.596Z,61.12
2023-05-16T15:18:20.752Z,62.81
2023-05-16T15:20:48.631Z,60.84
2023-05-16T15:23:16.486Z,58.31
2023-05-16T15:25:44.404Z,58.61
2023-05-16T15:28:12.405Z,59.94
2023-05-16T15:30:40.581Z,60.52
2023-05-16T15:33:08.425Z,61.45
2023-05-16T15:35:36.409Z,62.10
2023-05-16T15:38:04.290Z,62.86
2023-05-16T15:40:32.126Z,60.95
2023-05-16T15:43:00.002Z,58.09
2023-05-16T15:45:28.033Z,58.74
2023-05-16T15:47:56.774Z,60.23
2023-05-16T15:50:24.736Z,61.13
2023-05-16T15:52:52.656Z,61.96
2023-05-16T15:55:20.605Z,62.95
2023-05-16T15:57:48.519Z,60.86
2023-05-16T16:00:16.964Z,57.96
2023-05-16T16:02:46.144Z,58.20
2023-05-16T16:05:14.222Z,59.50
2023-05-16T16:07:42.376Z,60.82
2023-05-16T16:10:12.169Z,61.55
2023-05-16T16:12:40.067Z,62.40
2023-05-16T16:15:11.024Z,62.45
2023-05-16T16:17:38.958Z,60.04
2023-05-16T16:20:07.554Z,57.58
2023-05-16T16:22:35.367Z,58.50
2023-05-16T16:25:04.038Z,60.23
2023-05-16T16:27:31.929Z,61.17
2023-05-16T16:29:59.847Z,61.81
2023-05-16T16:32:27.832Z,62.89
2023-05-16T16:34:56.084Z,61.27
2023-05-16T16:37:23.909Z,58.91
2023-05-16T16:39:51.927Z,58.22
2023-05-16T16:42:19.671Z,59.59
2023-05-16T16:44:47.887Z,61.02
2023-05-16T16:47:15.831Z,62.10
2023-05-16T16:49:44.092Z,62.89
2023-05-16T16:52:12.566Z,60.93
2023-05-16T16:54:40.752Z,58.26
2023-05-16T16:57:08.731Z,58.87
2023-05-16T16:59:36.692Z,60.44
2023-05-16T17:02:04.858Z,61.50
2023-05-16T17:04:35.015Z,62.67
2023-05-16T17:07:03.009Z,61.53
2023-05-16T17:09:31.032Z,58.80
2023-05-16T17:12:04.557Z,58.75
2023-05-16T17:14:32.400Z,60.21
2023-05-16T17:17:00.424Z,61.19
2023-05-16T17:19:28.712Z,62.38
2023-05-16T17:21:56.890Z,62.96
2023-05-16T17:24:24.815Z,60.52
2023-05-16T17:26:52.740Z,58.19
2023-05-16T17:29:20.593Z,58.78
2023-05-16T17:31:48.461Z,60.63
2023-05-16T17:34:16.343Z,61.96
2023-05-16T17:36:44.304Z,62.98
2023-05-16T17:39:12.367Z,61.17
2023-05-16T17:41:40.407Z,58.47
2023-05-16T17:44:08.662Z,58.99
2023-05-16T17:46:39.875Z,60.52
2023-05-16T17:49:08.183Z,61.92
2023-05-16T17:51:52.380Z,63.21
2023-05-16T17:54:22.677Z,61.45
2023-05-16T17:56:51.767Z,58.79
2023-05-16T17:59:20.192Z,57.53
2023-05-16T18:01:48.943Z,59.41
2023-05-16T18:04:18.756Z,60.80
2023-05-16T18:06:48.334Z,62.00
2023-05-16T18:09:16.078Z,62.82
2023-05-16T18:11:44.128Z,60.52
2023-05-16T18:14:14.132Z,57.85
2023-05-16T18:16:42.097Z,58.46
2023-05-16T18:19:10.113Z,59.91
2023-05-16T18:21:38.338Z,61.02
2023-05-16T18:24:11.478Z,62.32
2023-05-16T18:26:39.765Z,62.97
2023-05-16T18:29:10.642Z,61.28
2023-05-16T18:31:41.400Z,58.93
2023-05-16T18:34:10.382Z,59.00
2023-05-16T18:36:38.251Z,60.51
2023-05-16T18:39:06.114Z,61.60
2023-05-16T18:41:34.038Z,62.58
2023-05-16T18:44:01.933Z,62.12
2023-05-16T18:46:29.981Z,59.53
2023-05-16T18:48:58.030Z,58.52
2023-05-16T18:51:26.021Z,60.10
2023-05-16T18:53:54.042Z,61.34
2023-05-16T18:56:22.574Z,62.73
2023-05-16T18:58:50.829Z,62.92
2023-05-16T19:01:22.252Z,60.60
2023-05-16T19:03:50.387Z,58.02
2023-05-16T19:06:18.487Z,58.32
2023-05-16T19:08:48.168Z,59.64
2023-05-16T19:11:17.769Z,60.83
2023-05-16T19:13:46.177Z,61.93
2023-05-16T19:16:15.152Z,63.56
2023-05-16T19:18:43.241Z,61.80
2023-05-16T19:21:15.323Z,58.94
2023-05-16T19:23:49.156Z,57.47
2023-05-16T19:26:17.279Z,58.97
2023-05-16T19:28:45.259Z,60.24
2023-05-16T19:31:13.368Z,61.54
2023-05-16T19:33:41.555Z,63.23
2023-05-16T19:36:09.957Z,61.87
2023-05-16T19:38:37.822Z,59.59
2023-05-16T19:41:05.777Z,56.26
2023-05-16T19:43:34.313Z,57.46
2023-05-16T19:46:02.222Z,59.21
2023-05-16T19:48:30.415Z,60.52
2023-05-16T19:50:58.637Z,61.37
2023-05-16T19:53:26.724Z,63.22
2023-05-16T19:55:54.632Z,61.47
2023-05-16T19:58:22.541Z,58.68
2023-05-16T20:00:50.885Z,58.52
2023-05-16T20:03:19.114Z,60.11
2023-05-16T20:05:47.265Z,61.30
2023-05-16T20:08:15.134Z,63.10
2023-05-16T20:10:43.218Z,61.70
2023-05-16T20:13:11.034Z,58.47
2023-05-16T20:15:38.959Z,58.64
2023-05-16T20:18:06.958Z,60.29
2023-05-16T20:20:34.924Z,61.65
2023-05-16T20:23:02.852Z,63.29
2023-05-16T20:25:32.163Z,61.54
2023-05-16T20:27:59.977Z,58.07
2023-05-16T20:30:28.296Z,58.42
2023-05-16T20:32:56.212Z,60.12
2023-05-16T20:35:24.077Z,61.74
2023-05-16T20:37:51.834Z,63.40
2023-05-16T20:40:20.103Z,61.46
2023-05-16T20:42:48.010Z,58.01
2023-05-16T20:45:16.101Z,58.49
2023-05-16T20:47:44.123Z,60.22
2023-05-16T20:50:12.335Z,61.46
2023-05-16T20:52:40.551Z,63.03
2023-05-16T20:55:08.880Z,61.27
2023-05-16T20:57:37.034Z,58.12
2023-05-16T21:00:05.890Z,58.72
2023-05-16T21:02:33.674Z,60.39
2023-05-16T21:05:14.470Z,61.93
2023-05-16T21:07:49.392Z,63.57
2023-05-16T21:10:17.418Z,61.03
2023-05-16T21:12:45.614Z,58.10
2023-05-16T21:15:13.505Z,59.04
2023-05-16T21:17:42.292Z,60.94
2023-05-16T21:20:10.776Z,62.23
2023-05-16T21:22:38.773Z,63.99
2023-05-16T21:25:07.151Z,61.48
2023-05-16T21:27:35.071Z,58.14
2023-05-16T21:30:03.180Z,58.79
2023-05-16T21:32:32.555Z,60.62
2023-05-16T21:35:04.785Z,62.32
2023-05-16T21:37:33.213Z,63.61
2023-05-16T21:40:01.180Z,61.31
2023-05-16T21:42:29.270Z,58.59
2023-05-16T21:45:01.649Z,59.09
2023-05-16T21:47:29.534Z,61.02
2023-05-16T21:49:57.517Z,62.61
2023-05-16T21:52:25.888Z,63.73
2023-05-16T21:54:53.706Z,61.40
2023-05-16T21:57:21.701Z,58.78
2023-05-16T21:59:51.643Z,58.34
2023-05-16T22:02:23.123Z,60.19
2023-05-16T22:04:54.092Z,62.06
2023-05-16T22:07:24.052Z,63.74
2023-05-16T22:09:54.193Z,61.59
2023-05-16T22:12:22.410Z,58.54
2023-05-16T22:14:51.215Z,58.27
2023-05-16T22:17:19.656Z,60.22
2023-05-16T22:19:47.777Z,61.99
2023-05-16T22:22:15.970Z,63.70
2023-05-16T22:24:43.980Z,61.51
2023-05-16T22:27:11.910Z,58.64
2023-05-16T22:29:39.914Z,58.45
2023-05-16T22:32:09.418Z,60.51
2023-05-16T22:34:40.534Z,62.38
2023-05-16T22:37:11.996Z,63.70
2023-05-16T22:39:40.622Z,61.10
2023-05-16T22:42:08.507Z,58.28
2023-05-16T22:44:36.448Z,59.14
2023-05-16T22:47:04.672Z,61.12
2023-05-16T22:49:32.674Z,63.20
2023-05-16T22:52:00.637Z,61.89
2023-05-16T22:54:31.417Z,59.01
2023-05-16T22:56:59.710Z,58.01
2023-05-16T22:59:28.018Z,60.14
2023-05-16T23:01:56.775Z,62.05
2023-05-16T23:04:25.235Z,63.81
2023-05-16T23:06:53.310Z,61.72
2023-05-16T23:09:21.489Z,58.88
2023-05-16T23:11:49.514Z,58.17
2023-05-16T23:14:17.960Z,60.20
2023-05-16T23:16:47.045Z,62.14
2023-05-16T23:19:16.408Z,63.84
2023-05-16T23:21:45.059Z,61.63
2023-05-16T23:24:13.210Z,58.70
2023-05-16T23:26:41.106Z,58.38
2023-05-16T23:29:09.259Z,60.52
2023-05-16T23:31:37.215Z,62.51
2023-05-16T23:34:05.458Z,63.34
2023-05-16T23:36:33.379Z,60.41
2023-05-16T23:39:01.427Z,57.85
2023-05-16T23:41:29.218Z,59.05
2023-05-16T23:43:57.226Z,61.13
2023-05-16T23:46:25.116Z,63.17
2023-05-16T23:48:53.085Z,61.86
2023-05-16T23:51:21.933Z,59.00
2023-05-16T23:53:49.784Z,57.84
2023-05-16T23:56:18.250Z,59.91
2023-05-16T23:58:46.294Z,61.89
